createdAt,value
2017-12-15T00:03:12.306Z,0
2017-12-15T00:08:12.229Z,0
2017-12-15T00:13:12.168Z,0
2017-12-15T00:18:12.153Z,0
2017-12-15T00:23:12.043Z,0
2017-12-15T00:28:11.702Z,0
2017-12-15T00:33:12.026Z,0
2017-12-15T00:38:11.881Z,0
2017-12-15T00:43:11.771Z,0
2017-12-15T00:48:11.700Z,0
2017-12-15T00:53:11.654Z,0
2017-12-15T00:58:11.580Z,0
2017-12-15T01:03:11.542Z,0
2017-12-15T01:08:11.564Z,0
2017-12-15T01:13:11.399Z,0
2017-12-15T01:18:11.307Z,0
2017-12-15T01:23:11.007Z,0
2017-12-15T01:28:11.271Z,0
2017-12-15T01:33:11.169Z,0
2017-12-15T01:38:11.137Z,0
2017-12-15T01:43:11.028Z,0
2017-12-15T01:48:10.899Z,0
2017-12-15T01:53:10.581Z,0
2017-12-15T01:58:10.780Z,0
2017-12-15T02:03:10.725Z,0
2017-12-15T02:08:10.390Z,0
2017-12-15T02:13:10.573Z,0
2017-12-15T02:18:10.493Z,0
2017-12-15T02:23:10.434Z,0
2017-12-15T02:28:10.361Z,0
2017-12-15T02:33:10.293Z,0
2017-12-15T02:38:10.302Z,0
2017-12-15T02:43:10.152Z,0
2017-12-15T02:48:10.092Z,0
2017-12-15T02:53:10.008Z,0
2017-12-15T02:58:10.003Z,0
2017-12-15T03:03:09.858Z,0
2017-12-15T03:08:09.528Z,0
2017-12-15T03:13:09.826Z,0
2017-12-15T03:18:09.508Z,0
2017-12-15T03:23:09.597Z,0
2017-12-15T03:28:09.530Z,0
2017-12-15T03:33:09.482Z,0
2017-12-15T03:38:09.446Z,0
2017-12-15T03:43:09.313Z,0
2017-12-15T03:48:09.086Z,0
2017-12-15T03:53:09.275Z,0
2017-12-15T03:58:08.829Z,0
2017-12-15T04:03:09.022Z,0
2017-12-15T04:08:08.958Z,0
2017-12-15T04:13:08.910Z,0
2017-12-15T04:18:08.583Z,0
2017-12-15T04:23:08.757Z,0
2017-12-15T04:28:08.661Z,0
2017-12-15T04:33:08.343Z,0
2017-12-15T04:38:08.589Z,0
2017-12-15T04:43:08.492Z,0
2017-12-15T04:48:08.489Z,0
2017-12-15T04:53:08.049Z,0
2017-12-15T04:58:08.243Z,0
2017-12-15T05:03:07.899Z,0
2017-12-15T05:08:08.107Z,0
2017-12-15T05:13:08.035Z,0
2017-12-15T05:18:07.949Z,0
2017-12-15T05:23:07.874Z,0
2017-12-15T05:28:07.571Z,0
2017-12-15T05:33:07.512Z,0
2017-12-15T05:38:07.671Z,0
2017-12-15T05:43:07.599Z,0
2017-12-15T05:48:07.589Z,0
2017-12-15T05:53:07.465Z,0
2017-12-15T05:58:07.403Z,0
2017-12-15T06:03:07.483Z,0
2017-12-15T06:08:07.240Z,0
2017-12-15T06:13:07.247Z,0
2017-12-15T06:18:06.690Z,0
2017-12-15T06:23:07.121Z,0
2017-12-15T06:28:07.016Z,0
2017-12-15T06:33:06.930Z,0
2017-12-15T06:38:06.818Z,0
2017-12-15T06:43:06.739Z,0
2017-12-15T06:48:06.728Z,0
2017-12-15T06:53:06.597Z,0
2017-12-15T06:58:06.515Z,0
2017-12-15T07:03:06.456Z,0
2017-12-15T07:08:06.393Z,0
2017-12-15T07:13:06.314Z,0
2017-12-15T07:18:06.238Z,0
2017-12-15T07:23:06.246Z,0
2017-12-15T07:28:06.103Z,0
2017-12-15T07:33:06.068Z,0
2017-12-15T07:38:05.792Z,0
2017-12-15T07:43:05.660Z,0
2017-12-15T07:48:05.862Z,0
2017-12-15T07:53:05.781Z,0
2017-12-15T07:58:05.605Z,0
2017-12-15T08:03:05.395Z,0
2017-12-15T08:08:05.647Z,0
2017-12-15T08:13:05.654Z,0
2017-12-15T08:18:05.192Z,0
2017-12-15T08:23:05.412Z,0
2017-12-15T08:28:05.334Z,0
2017-12-15T08:33:05.296Z,0
2017-12-15T08:38:05.344Z,0
2017-12-15T08:43:05.164Z,0
2017-12-15T08:48:05.088Z,0
2017-12-15T08:53:05.019Z,16
2017-12-15T08:58:04.993Z,16
2017-12-15T09:03:04.948Z,16
2017-12-15T09:08:04.907Z,16
2017-12-15T09:13:04.767Z,20
2017-12-15T09:18:04.682Z,24
2017-12-15T09:23:04.621Z,24
2017-12-15T09:28:04.367Z,28
2017-12-15T09:33:04.509Z,24
2017-12-15T09:38:04.403Z,20
2017-12-15T09:43:04.421Z,24
2017-12-15T09:48:04.320Z,24
2017-12-15T09:53:03.953Z,24
2017-12-15T09:58:04.155Z,24
2017-12-15T10:03:04.074Z,20
2017-12-15T10:08:04.019Z,20
2017-12-15T10:13:03.709Z,20
2017-12-15T10:18:03.914Z,20
2017-12-15T10:23:03.555Z,20
2017-12-15T10:28:03.771Z,24
2017-12-15T10:33:03.522Z,20
2017-12-15T10:38:03.615Z,28
2017-12-15T10:43:03.537Z,32
2017-12-15T10:48:03.503Z,28
2017-12-15T10:53:03.453Z,20
2017-12-15T10:58:03.461Z,20
2017-12-15T11:03:03.322Z,20
2017-12-15T11:08:03.213Z,28
2017-12-15T11:13:02.944Z,28
2017-12-15T11:18:03.083Z,32
2017-12-15T11:23:03.019Z,32
2017-12-15T11:28:02.958Z,36
2017-12-15T11:33:03.002Z,36
2017-12-15T11:38:02.812Z,28
2017-12-15T11:43:02.758Z,28
2017-12-15T11:48:02.663Z,32
2017-12-15T11:53:02.627Z,24
2017-12-15T11:58:02.282Z,24
2017-12-15T12:03:02.468Z,24
2017-12-15T12:08:02.518Z,28
2017-12-15T12:13:02.342Z,28
2017-12-15T12:18:02.282Z,28
2017-12-15T12:23:02.252Z,32
2017-12-15T12:28:01.900Z,28
2017-12-15T12:33:02.104Z,24
2017-12-15T12:38:02.040Z,20
2017-12-15T12:43:02.047Z,20
2017-12-15T12:48:01.887Z,24
2017-12-15T12:53:01.837Z,24
2017-12-15T12:58:01.810Z,28
2017-12-15T13:03:01.186Z,28
2017-12-15T13:08:01.634Z,28
2017-12-15T13:13:01.652Z,24
2017-12-15T13:18:01.499Z,28
2017-12-15T13:23:01.206Z,20
2017-12-15T13:28:01.349Z,20
2017-12-15T13:33:01.377Z,20
2017-12-15T13:38:01.273Z,20
2017-12-15T13:43:00.643Z,20
2017-12-15T13:48:01.079Z,20
2017-12-15T13:53:00.750Z,16
2017-12-15T13:58:00.945Z,12
2017-12-15T14:03:00.889Z,16
2017-12-15T14:08:00.819Z,12
2017-12-15T14:13:00.773Z,12
2017-12-15T14:18:00.672Z,16
2017-12-15T14:23:00.611Z,12
2017-12-15T14:28:00.638Z,12
2017-12-15T14:32:59.949Z,8
2017-12-15T14:38:00.400Z,12
2017-12-15T14:43:00.391Z,12
2017-12-15T14:48:00.357Z,8
2017-12-15T14:53:00.233Z,4
2017-12-15T14:58:00.253Z,4
2017-12-15T15:03:00.081Z,4
2017-12-15T15:07:59.981Z,8
2017-12-15T15:12:59.771Z,4
2017-12-15T15:17:59.609Z,4
2017-12-15T15:22:59.806Z,4
2017-12-15T15:27:59.769Z,0
2017-12-15T15:32:59.830Z,4
2017-12-15T15:37:59.590Z,4
2017-12-15T15:42:59.542Z,4
2017-12-15T15:47:59.486Z,0
2017-12-15T15:52:59.466Z,4
2017-12-15T15:57:59.366Z,4
2017-12-15T16:02:59.287Z,4
2017-12-15T16:07:59.208Z,4
2017-12-15T16:12:59.146Z,4
2017-12-15T16:17:59.156Z,4
2017-12-15T16:22:59.094Z,4
2017-12-15T16:27:58.983Z,4
2017-12-15T16:32:58.885Z,4
2017-12-15T16:37:58.930Z,4
2017-12-15T16:42:58.736Z,4
2017-12-15T16:47:58.680Z,4
2017-12-15T16:52:58.612Z,4
2017-12-15T16:57:58.540Z,4
2017-12-15T17:02:58.558Z,4
2017-12-15T17:07:58.446Z,4
2017-12-15T17:12:58.452Z,4
2017-12-15T17:17:58.063Z,4
2017-12-15T17:22:57.975Z,4
2017-12-15T17:27:58.190Z,4
2017-12-15T17:32:58.173Z,4
2017-12-15T17:37:57.809Z,4
2017-12-15T17:42:58.073Z,4
2017-12-15T17:47:57.933Z,4
2017-12-15T17:52:57.917Z,4
2017-12-15T17:57:57.821Z,4
2017-12-15T18:02:57.749Z,4
2017-12-15T18:07:57.797Z,4
2017-12-15T18:12:57.662Z,4
2017-12-15T18:17:57.575Z,4
2017-12-15T18:22:57.535Z,4
2017-12-15T18:27:57.219Z,4
2017-12-15T18:32:57.148Z,4
2017-12-15T18:37:57.325Z,4
2017-12-15T18:42:57.291Z,4
2017-12-15T18:47:57.209Z,0
2017-12-15T18:52:57.215Z,0
2017-12-15T18:57:57.165Z,0
2017-12-15T19:02:57.045Z,0
2017-12-15T19:07:56.747Z,0
2017-12-15T19:12:56.931Z,0
2017-12-15T19:17:56.609Z,0
2017-12-15T19:22:56.551Z,0
2017-12-15T19:27:56.831Z,0
2017-12-15T19:32:56.759Z,0
2017-12-15T19:37:56.145Z,0
2017-12-15T19:42:56.615Z,0
2017-12-15T19:47:56.536Z,0
2017-12-15T19:52:56.477Z,4
2017-12-15T19:57:56.480Z,4
2017-12-15T20:02:56.398Z,4
2017-12-15T20:07:56.368Z,4
2017-12-15T20:12:56.325Z,4
2017-12-15T20:17:56.229Z,4
2017-12-15T20:22:56.131Z,4
2017-12-15T20:27:56.094Z,4
2017-12-15T20:32:56.028Z,4
2017-12-15T20:37:56.046Z,4
2017-12-15T20:42:55.990Z,0
2017-12-15T20:47:55.849Z,0
2017-12-15T20:52:55.817Z,0
2017-12-15T20:57:55.736Z,0
2017-12-15T21:02:55.672Z,4
2017-12-15T21:07:55.636Z,4
2017-12-15T21:12:55.544Z,4
2017-12-15T21:17:55.493Z,4
2017-12-15T21:22:55.497Z,4
2017-12-15T21:27:55.390Z,4
2017-12-15T21:32:55.310Z,4
2017-12-15T21:37:55.253Z,4
2017-12-15T21:42:54.948Z,4
2017-12-15T21:47:55.147Z,4
2017-12-15T21:52:55.069Z,4
2017-12-15T21:57:55.049Z,4
2017-12-15T22:02:54.974Z,4
2017-12-15T22:07:54.957Z,4
2017-12-15T22:12:54.845Z,4
2017-12-15T22:17:54.784Z,4
2017-12-15T22:22:54.717Z,4
2017-12-15T22:27:54.659Z,4
2017-12-15T22:32:54.382Z,4
2017-12-15T22:37:54.538Z,4
2017-12-15T22:42:54.481Z,4
2017-12-15T22:47:54.445Z,4
2017-12-15T22:52:54.361Z,0
2017-12-15T22:57:54.309Z,0
2017-12-15T23:02:54.243Z,0
2017-12-15T23:07:54.185Z,0
2017-12-15T23:12:54.123Z,0
2017-12-15T23:17:54.166Z,0
2017-12-15T23:22:54.073Z,0
2017-12-15T23:27:53.953Z,0
2017-12-15T23:32:53.855Z,0
2017-12-15T23:37:53.798Z,0
2017-12-15T23:42:53.746Z,0
2017-12-15T23:47:53.653Z,0
2017-12-15T23:52:53.696Z,0
2017-12-15T23:57:53.593Z,0
